Accueil
METAR-TAF:

METAR-TAF

Aéroports :

Aéroport international de Sarajevo

Sarajevo, Bosnie-Herzégovine

latitude: 43-49N, longitude: 018-20E, altitude: 511 m

Observation

Le bulletin a été fait il y a 45 minutes, à 22:00 UTC
Vent 1 kt de direction variable
Température 18°C
Humidité 94%
Pression 1016 hPa
Visibilité 10 km ou plus
pas de nuages en-dessous de 1500 mètres et pas de cumulonimbus.

METAR: LQSA 172200Z VRB01KT CAVOK 18/17 Q1016 NOSIG

Heure: 00:45 (22:45 UTC)

Prévision

Le bulletin a été fait il y a 5 heures et 45 minutes, à 17:00 UTC
Prévision valable du 17 à 18 UTC au 18 à 18 UTC
Vent 5 kt de nord/nord-ouest
Visibilité 10 km ou plus
pas de nuages en-dessous de 1500 mètres et pas de cumulonimbus.

TAF: LQSA 171700Z 1718/1818 33005KT CAVOK TX35/1814Z TN16/1804Z

Observations et prévisions météorologiques de plus de 4000 aéroports (messages METAR et TAF).

Les stations disponibles sont représentées par des disques jaunes et rouges sur la carte.

Passer la souris dessus pour voir le nom de la station.

Cliquer dessus pour voir les observations et prévisions météorologiques.

Pour changer de carte: cliquez sur les boutons verts avec une croix noire pour zoomer, sur le bouton vert avec un tiret pour effectuer un zoom arrière, ou sur les flèches vertes pour les cartes adjacentes.


METAR-TAF: